Time;durP1;ratioP1;P1;durP2;ratioP2;P2;SDS_P1;SDS_P2;PMS_P1;PMS_P2;Temp;Humidity;BMP_temperature;BMP_pressure;BME280_temperature;BME280_humidity;BME280_pressure;Samples;Min_cycle;Max_cycle;Signal;HPM_P1;HPM_P2
2021/12/08 00:00:53;;;;;;;7.03;2.35;;;;;;;0.48;72.38;95906.75;5008912;28;20045;-57
2021/12/08 00:03:22;;;;;;;7.18;2.17;;;;;;;0.47;73.03;95902.47;5011910;28;20576;-59
2021/12/08 00:05:49;;;;;;;4.18;2.00;;;;;;;0.48;73.69;95914.72;5008149;28;20062;-59
2021/12/08 00:08:19;;;;;;;5.00;2.70;;;;;;;0.41;74.65;95906.03;5006740;28;20057;-55
2021/12/08 00:13:27;;;;;;;8.52;2.63;;;;;;;0.28;75.81;95912.31;5012612;28;20045;-58
2021/12/08 00:16:07;;;;;;;5.90;2.33;;;;;;;0.27;76.59;95905.38;5021040;28;20063;-58
2021/12/08 00:18:34;;;;;;;8.00;2.72;;;;;;;0.19;76.85;95910.97;5024040;28;20049;-56
2021/12/08 00:21:07;;;;;;;5.78;3.03;;;;;;;0.16;76.86;95916.75;5025847;28;20045;-57
2021/12/08 00:23:34;;;;;;;11.55;3.50;;;;;;;0.11;77.56;95898.78;5021113;28;20044;-57
2021/12/08 00:26:03;;;;;;;6.13;2.88;;;;;;;0.05;78.44;95903.16;5011204;28;20694;-58
2021/12/08 00:28:30;;;;;;;6.43;2.70;;;;;;;0.09;79.21;95899.00;5013719;28;20046;-58
2021/12/08 00:30:59;;;;;;;3.95;2.30;;;;;;;0.09;78.04;95890.19;5007361;28;20046;-55
2021/12/08 00:33:28;;;;;;;4.30;2.40;;;;;;;0.11;77.90;95883.63;5014331;28;20052;-58
2021/12/08 00:35:56;;;;;;;5.50;2.47;;;;;;;0.17;77.42;95870.44;5009407;28;20046;-59
2021/12/08 00:38:23;;;;;;;5.82;3.25;;;;;;;0.14;77.83;95863.72;5028110;28;20045;-55
2021/12/08 00:40:50;;;;;;;6.78;2.60;;;;;;;0.19;77.73;95871.06;5010106;28;20460;-57
2021/12/08 00:43:18;;;;;;;7.50;3.72;;;;;;;0.11;77.59;95872.19;5012120;28;20537;-58
2021/12/08 00:45:46;;;;;;;7.07;3.20;;;;;;;0.09;77.57;95874.22;5018162;28;20033;-59
2021/12/08 00:48:13;;;;;;;5.65;2.90;;;;;;;0.20;77.58;95870.00;5020775;28;20049;-58
2021/12/08 00:50:41;;;;;;;4.75;2.50;;;;;;;0.20;78.33;95880.66;5023141;28;20046;-58
2021/12/08 00:53:08;;;;;;;4.80;2.40;;;;;;;0.07;79.25;95874.44;5012480;28;20050;-58
2021/12/08 00:55:36;;;;;;;7.10;3.20;;;;;;;0.03;79.35;95881.25;5009632;28;20041;-57
2021/12/08 00:58:03;;;;;;;7.35;3.15;;;;;;;0.05;79.66;95879.19;5019466;28;20421;-58
2021/12/08 01:00:36;;;;;;;4.93;2.45;;;;;;;0.15;79.51;95878.69;5023299;28;20060;-58
2021/12/08 01:03:03;;;;;;;4.85;2.78;;;;;;;-0.01;80.84;95875.56;5014491;28;20045;-59
2021/12/08 01:05:38;;;;;;;9.90;3.67;;;;;;;-0.04;81.60;95881.31;5010526;28;20433;-57
2021/12/08 01:08:06;;;;;;;4.88;2.53;;;;;;;-0.10;82.24;95881.41;5014381;28;20044;-58
2021/12/08 01:10:34;;;;;;;5.68;3.15;;;;;;;-0.09;82.00;95886.50;5028515;28;20049;-59
2021/12/08 01:13:07;;;;;;;5.55;3.13;;;;;;;-0.14;82.69;95894.34;5009399;28;20429;-58
2021/12/08 01:15:38;;;;;;;5.10;2.42;;;;;;;-0.16;82.84;95886.56;5010375;28;20683;-58
2021/12/08 01:18:05;;;;;;;4.93;3.27;;;;;;;-0.23;83.53;95887.69;5009537;28;20045;-57
2021/12/08 01:20:33;;;;;;;7.90;3.13;;;;;;;-0.22;84.49;95882.13;5014498;28;20041;-58
2021/12/08 01:23:00;;;;;;;7.78;3.13;;;;;;;-0.21;85.09;95883.75;5009329;28;20133;-57
2021/12/08 01:25:26;;;;;;;4.80;2.40;;;;;;;-0.27;84.94;95873.97;5011121;28;20042;-59
2021/12/08 01:27:53;;;;;;;5.57;2.83;;;;;;;-0.29;85.13;95879.53;5008914;28;20049;-58
2021/12/08 01:30:20;;;;;;;5.65;2.70;;;;;;;-0.27;85.28;95872.16;5024491;28;20045;-58
2021/12/08 01:32:46;;;;;;;6.50;2.60;;;;;;;-0.24;84.48;95867.41;5018324;28;20057;-59
2021/12/08 01:35:13;;;;;;;4.80;2.55;;;;;;;-0.22;85.61;95866.16;5009284;28;20034;-59
2021/12/08 01:37:40;;;;;;;5.50;2.30;;;;;;;-0.15;85.47;95868.75;5011922;28;20431;-59
2021/12/08 01:40:11;;;;;;;5.32;2.58;;;;;;;-0.18;86.17;95862.00;5013148;28;20045;-59
2021/12/08 01:42:45;;;;;;;5.88;3.03;;;;;;;-0.19;85.41;95864.94;5020780;28;20079;-59
2021/12/08 01:48:03;;;;;;;5.65;2.47;;;;;;;-0.22;85.33;95862.69;5026282;28;20149;-58
2021/12/08 01:50:30;;;;;;;6.18;2.42;;;;;;;-0.14;85.82;95859.75;5010224;28;20053;-58
2021/12/08 01:52:56;;;;;;;4.75;2.33;;;;;;;-0.06;85.51;95866.63;5019707;28;20460;-57
2021/12/08 01:55:23;;;;;;;5.57;2.40;;;;;;;-0.10;85.89;95860.94;5008329;28;20037;-59
2021/12/08 01:57:50;;;;;;;5.95;2.58;;;;;;;-0.12;85.85;95868.31;5008113;28;20567;-56
2021/12/08 02:00:24;;;;;;;4.72;2.33;;;;;;;0.03;84.54;95867.16;5014283;28;20064;-57
2021/12/08 02:02:55;;;;;;;5.65;2.13;;;;;;;-0.11;85.38;95872.59;5014878;28;20046;-57
2021/12/08 02:05:22;;;;;;;4.38;1.98;;;;;;;-0.09;85.90;95870.53;5021432;28;20038;-58
2021/12/08 02:07:50;;;;;;;5.43;3.25;;;;;;;-0.15;85.93;95874.88;5024600;28;20045;-59
2021/12/08 02:10:17;;;;;;;5.03;2.30;;;;;;;-0.17;86.08;95866.31;5024865;28;20037;-59
2021/12/08 02:12:44;;;;;;;8.77;2.85;;;;;;;-0.20;86.06;95865.94;5008570;28;20425;-59
2021/12/08 02:15:13;;;;;;;4.70;2.50;;;;;;;-0.09;86.21;95872.38;5012712;28;20727;-59
2021/12/08 02:17:41;;;;;;;9.65;2.65;;;;;;;-0.14;86.65;95868.53;5023161;28;20044;-59
2021/12/08 02:20:10;;;;;;;4.68;1.92;;;;;;;0.06;85.04;95872.81;5022445;28;20064;-58
2021/12/08 02:22:38;;;;;;;6.72;2.65;;;;;;;0.03;84.98;95867.16;5010061;28;20053;-59
2021/12/08 02:25:07;;;;;;;5.53;2.10;;;;;;;-0.03;85.53;95876.81;5012594;28;20544;-59
2021/12/08 02:27:35;;;;;;;4.45;2.15;;;;;;;-0.03;85.77;95869.63;5024331;28;20045;-59
2021/12/08 02:30:15;;;;;;;3.22;1.67;;;;;;;0.10;85.76;95867.88;5024421;28;20562;-59
2021/12/08 02:46:47;;;;;;;9.23;2.80;;;;;;;0.37;85.64;95839.06;5018447;28;20504;-59
2021/12/08 02:49:15;;;;;;;5.13;2.83;;;;;;;0.31;86.79;95829.34;5008180;28;20832;-59
2021/12/08 02:51:42;;;;;;;6.00;3.40;;;;;;;0.28;86.93;95824.44;5007347;28;20052;-59
2021/12/08 02:54:09;;;;;;;6.68;3.85;;;;;;;0.29;86.86;95819.94;5013378;28;20049;-59
2021/12/08 02:56:36;;;;;;;6.72;3.47;;;;;;;0.33;86.67;95818.47;5024822;28;20033;-57
2021/12/08 02:59:04;;;;;;;8.13;3.40;;;;;;;0.45;86.33;95821.16;5011107;28;20045;-58
2021/12/08 03:01:31;;;;;;;6.05;3.38;;;;;;;0.43;86.58;95825.88;5006639;28;20056;-58
2021/12/08 03:03:58;;;;;;;6.18;3.15;;;;;;;0.36;86.86;95824.13;5020304;28;20045;-58
2021/12/08 03:06:25;;;;;;;6.75;3.60;;;;;;;0.40;87.09;95829.81;5020976;28;20034;-59
2021/12/08 03:08:51;;;;;;;8.52;5.10;;;;;;;0.47;87.17;95832.41;5023219;28;20730;-59
2021/12/08 03:11:18;;;;;;;10.18;4.65;;;;;;;0.58;86.28;95830.81;5007181;28;20529;-59
2021/12/08 03:13:58;;;;;;;9.63;3.88;;;;;;;0.64;86.02;95833.41;5008151;28;20029;-59
2021/12/08 03:16:26;;;;;;;9.65;3.72;;;;;;;0.71;86.01;95833.31;5022201;28;20049;-59
2021/12/08 03:18:53;;;;;;;8.75;4.75;;;;;;;0.70;86.19;95836.19;5011544;28;20041;-59
2021/12/08 03:21:26;;;;;;;7.75;4.22;;;;;;;0.77;86.01;95836.91;5018622;28;20464;-59
2021/12/08 03:24:10;;;;;;;7.53;4.00;;;;;;;0.72;86.27;95834.94;5018378;28;20038;-59
2021/12/08 03:26:47;;;;;;;9.98;4.72;;;;;;;0.66;86.76;95833.16;5015460;28;20042;-59
2021/12/08 03:29:27;;;;;;;8.18;4.78;;;;;;;0.59;87.27;95835.13;5011397;28;20536;-59
2021/12/08 03:32:03;;;;;;;9.45;4.05;;;;;;;0.58;87.52;95844.94;5014607;28;20037;-59
2021/12/08 03:34:31;;;;;;;7.60;3.97;;;;;;;0.71;87.37;95830.66;5012668;28;20046;-59
2021/12/08 03:36:59;;;;;;;7.80;4.38;;;;;;;0.79;87.31;95829.50;5025524;28;20639;-59
2021/12/08 03:39:26;;;;;;;8.93;4.00;;;;;;;0.83;87.10;95830.69;5009086;28;20052;-57
2021/12/08 03:41:52;;;;;;;7.10;4.05;;;;;;;0.87;86.81;95826.50;5017606;28;20042;-59
2021/12/08 03:44:19;;;;;;;6.18;3.28;;;;;;;0.93;86.90;95834.63;5011710;28;20034;-59
2021/12/08 03:46:45;;;;;;;6.82;4.20;;;;;;;0.93;86.65;95831.97;5022307;28;20093;-59
2021/12/08 03:49:16;;;;;;;9.80;3.63;;;;;;;0.96;86.70;95831.53;5011481;28;20519;-59
2021/12/08 03:51:44;;;;;;;6.60;3.78;;;;;;;0.97;87.13;95830.47;5006743;28;20049;-59
2021/12/08 03:54:12;;;;;;;6.95;3.65;;;;;;;1.00;87.00;95828.16;5006986;28;20065;-59
2021/12/08 03:56:39;;;;;;;7.70;4.10;;;;;;;1.06;86.82;95820.31;5015509;28;20099;-59
2021/12/08 03:59:06;;;;;;;8.05;4.22;;;;;;;1.16;86.96;95823.19;5013499;28;20521;-59
2021/12/08 04:01:34;;;;;;;9.95;4.63;;;;;;;1.21;86.74;95823.31;5024302;28;20045;-59
2021/12/08 04:04:06;;;;;;;10.68;5.20;;;;;;;1.23;86.48;95836.41;5021798;28;20053;-59
2021/12/08 04:06:41;;;;;;;6.97;3.75;;;;;;;1.26;86.24;95831.44;5022607;28;20440;-59
2021/12/08 04:11:55;;;;;;;8.38;4.43;;;;;;;1.32;86.03;95832.38;5006079;28;20065;-58
2021/12/08 04:14:25;;;;;;;8.60;4.30;;;;;;;1.37;85.52;95835.16;5009790;28;20044;-59
2021/12/08 04:16:57;;;;;;;8.93;4.30;;;;;;;1.32;86.25;95835.03;5023021;28;20055;-59
2021/12/08 04:19:24;;;;;;;9.65;4.95;;;;;;;1.34;86.29;95827.63;5012063;28;20040;-57
2021/12/08 04:21:54;;;;;;;9.35;4.75;;;;;;;1.36;86.51;95828.19;5005282;28;20048;-58
2021/12/08 04:24:24;;;;;;;8.07;4.72;;;;;;;1.38;86.52;95834.13;5017043;28;20049;-59
2021/12/08 04:27:16;;;;;;;9.73;4.85;;;;;;;1.47;85.86;95833.78;5012797;28;20061;-58
2021/12/08 04:29:44;;;;;;;11.95;4.80;;;;;;;1.50;85.86;95835.97;5018125;28;20049;-59
2021/12/08 04:32:15;;;;;;;9.45;4.35;;;;;;;1.52;86.16;95836.56;5014338;28;20056;-59
2021/12/08 04:34:47;;;;;;;7.95;4.78;;;;;;;1.48;86.57;95836.22;5014280;28;20042;-59
2021/12/08 04:37:24;;;;;;;8.95;4.80;;;;;;;1.50;86.03;95836.78;5027973;28;20522;-59
2021/12/08 04:42:57;;;;;;;8.75;4.72;;;;;;;1.61;86.38;95839.69;5015034;28;20049;-59
2021/12/08 04:45:34;;;;;;;9.10;5.35;;;;;;;1.54;86.65;95850.47;5006118;28;20607;-59
2021/12/08 04:51:07;;;;;;;9.57;5.75;;;;;;;1.52;86.83;95839.22;5034273;28;20042;-59
2021/12/08 04:53:47;;;;;;;8.82;5.15;;;;;;;1.54;86.98;95832.63;5021311;28;20057;-59
2021/12/08 05:09:50;;;;;;;10.15;5.05;;;;;;;1.58;87.41;95843.63;5009090;28;20049;-59
2021/12/08 05:12:20;;;;;;;12.45;5.85;;;;;;;1.57;87.58;95847.34;5024085;28;20053;-59
2021/12/08 05:14:55;;;;;;;11.70;6.07;;;;;;;1.59;87.38;95847.13;5019272;28;20048;-59
2021/12/08 05:17:31;;;;;;;10.73;6.78;;;;;;;1.56;87.37;95843.06;5024055;28;20053;-58
2021/12/08 05:20:06;;;;;;;11.65;6.40;;;;;;;1.61;87.71;95840.50;5020951;28;20038;-57
2021/12/08 05:22:40;;;;;;;9.30;5.25;;;;;;;1.57;88.00;95852.69;5006784;28;20038;-58
2021/12/08 05:25:10;;;;;;;12.20;7.75;;;;;;;1.55;88.05;95854.78;5009049;28;20049;-57
2021/12/08 05:27:44;;;;;;;12.50;6.60;;;;;;;1.64;87.85;95853.38;5008861;28;20050;-58
2021/12/08 05:30:12;;;;;;;10.45;6.35;;;;;;;1.56;87.94;95856.41;5009215;28;20038;-59
2021/12/08 05:32:40;;;;;;;10.68;7.07;;;;;;;1.56;88.09;95853.72;5019554;28;20046;-57
2021/12/08 05:35:10;;;;;;;12.43;6.28;;;;;;;1.51;88.69;95842.94;5011825;28;20038;-59
2021/12/08 05:37:37;;;;;;;13.60;7.72;;;;;;;1.50;88.76;95850.13;5025140;28;20042;-59
2021/12/08 05:40:10;;;;;;;12.60;7.97;;;;;;;1.52;88.62;95844.56;5020312;28;20097;-59
2021/12/08 05:42:36;;;;;;;12.38;7.63;;;;;;;1.48;88.62;95828.22;5015919;28;20422;-59
2021/12/08 05:45:12;;;;;;;12.63;7.53;;;;;;;1.52;88.51;95837.34;5023188;28;20056;-58
2021/12/08 05:47:40;;;;;;;13.98;7.85;;;;;;;1.51;88.97;95834.94;5031252;28;20048;-59
2021/12/08 05:50:09;;;;;;;14.98;6.53;;;;;;;1.50;88.99;95828.78;5021864;28;20056;-59
2021/12/08 05:52:36;;;;;;;12.48;6.85;;;;;;;1.48;89.14;95811.38;5020866;28;20121;-58
2021/12/08 05:55:06;;;;;;;12.43;6.88;;;;;;;1.52;89.21;95792.00;5009252;28;20053;-59
2021/12/08 05:57:37;;;;;;;11.57;6.55;;;;;;;1.50;89.13;95796.78;5013474;28;20052;-59
2021/12/08 06:00:12;;;;;;;12.75;7.22;;;;;;;1.67;87.81;95812.88;5009131;28;20620;-59
2021/12/08 06:02:39;;;;;;;13.38;7.90;;;;;;;1.65;88.13;95811.47;5018733;28;20128;-59
2021/12/08 06:05:08;;;;;;;12.73;7.00;;;;;;;1.56;88.64;95805.72;5009537;28;20441;-57
2021/12/08 06:07:35;;;;;;;13.77;8.63;;;;;;;1.52;89.05;95792.00;5007922;28;20046;-59
2021/12/08 06:10:08;;;;;;;11.35;6.53;;;;;;;1.53;89.18;95784.81;5011788;28;20807;-60
2021/12/08 06:12:34;;;;;;;11.80;6.63;;;;;;;1.58;88.83;95800.94;5020334;28;20041;-59
2021/12/08 06:15:02;;;;;;;9.50;6.05;;;;;;;1.79;87.63;95806.72;5024548;28;20045;-59
2021/12/08 06:17:30;;;;;;;7.95;5.72;;;;;;;1.78;87.24;95803.25;5021384;28;20042;-59
2021/12/08 06:19:58;;;;;;;13.05;7.30;;;;;;;1.66;88.33;95789.91;5019534;28;20057;-58
2021/12/08 06:22:28;;;;;;;11.98;8.30;;;;;;;1.59;88.58;95791.91;5028488;28;20056;-59
2021/12/08 06:24:55;;;;;;;13.05;7.22;;;;;;;1.62;88.47;95796.75;5026223;28;20045;-59
2021/12/08 06:27:26;;;;;;;13.10;6.30;;;;;;;1.77;87.57;95804.28;5015785;28;20053;-59
2021/12/08 06:29:53;;;;;;;12.50;5.93;;;;;;;1.84;87.01;95803.34;5022888;28;20044;-59
2021/12/08 06:32:20;;;;;;;10.15;6.25;;;;;;;1.78;87.29;95797.09;5019128;28;20060;-59
2021/12/08 06:34:52;;;;;;;10.07;5.68;;;;;;;1.81;87.08;95791.28;5028390;28;20049;-59
2021/12/08 06:37:35;;;;;;;11.93;6.20;;;;;;;1.65;87.96;95788.28;5021057;28;20543;-59
2021/12/08 06:40:32;;;;;;;17.38;7.75;;;;;;;1.65;87.62;95788.28;5022248;28;20041;-58
2021/12/08 06:43:04;;;;;;;10.90;6.28;;;;;;;1.62;88.09;95788.75;5028111;28;20052;-59
2021/12/08 06:45:35;;;;;;;13.65;7.38;;;;;;;1.56;88.04;95806.50;5024281;28;20610;-59
2021/12/08 06:48:06;;;;;;;12.65;7.00;;;;;;;1.64;87.57;95813.34;5009364;28;20117;-59
2021/12/08 06:50:40;;;;;;;12.88;8.15;;;;;;;1.58;87.97;95824.94;5030704;28;20416;-59
2021/12/08 06:53:07;;;;;;;10.63;6.28;;;;;;;1.64;87.67;95826.69;5020955;28;20460;-59
2021/12/08 06:55:42;;;;;;;11.38;5.88;;;;;;;1.70;87.21;95830.28;5022724;28;20049;-58
2021/12/08 06:58:18;;;;;;;11.15;6.40;;;;;;;1.70;87.30;95824.97;5032486;28;20045;-59
2021/12/08 07:01:11;;;;;;;9.88;5.47;;;;;;;1.67;87.76;95833.44;5023380;28;20049;-59
2021/12/08 07:03:51;;;;;;;8.18;4.53;;;;;;;1.74;87.24;95842.13;5014982;28;20038;-59
2021/12/08 07:09:14;;;;;;;13.00;7.22;;;;;;;1.63;87.28;95846.44;5022345;28;20076;-58
2021/12/08 07:11:41;;;;;;;11.18;6.68;;;;;;;1.64;87.30;95869.38;5024511;28;20674;-57
2021/12/08 07:14:08;;;;;;;11.00;6.28;;;;;;;1.62;87.33;95870.66;5009796;28;20525;-58
2021/12/08 07:16:42;;;;;;;15.73;9.98;;;;;;;1.53;87.89;95871.00;5015593;28;20045;-58
2021/12/08 07:19:23;;;;;;;12.15;5.63;;;;;;;1.49;88.31;95871.69;5015705;28;20045;-59
2021/12/08 07:21:52;;;;;;;10.47;6.80;;;;;;;1.59;87.69;95871.13;5021359;28;20046;-59
2021/12/08 07:24:24;;;;;;;15.70;6.80;;;;;;;1.62;87.43;95863.47;5015136;28;20053;-59
2021/12/08 07:26:52;;;;;;;;;;;;;;;1.59;87.50;95866.63;5018576;28;20045;-58
2021/12/08 07:29:28;;;;;;;10.20;6.05;;;;;;;1.66;87.21;95859.28;5041913;28;19924;-57
2021/12/08 07:32:01;;;;;;;14.82;9.82;;;;;;;1.55;87.35;95844.09;5011559;28;20042;-57
2021/12/08 07:34:32;;;;;;;14.85;9.93;;;;;;;1.43;88.24;95842.25;5028090;28;20045;-57
2021/12/08 07:37:03;;;;;;;14.43;7.78;;;;;;;1.44;88.14;95843.06;5040043;28;20446;-57
2021/12/08 07:39:37;;;;;;;13.68;8.18;;;;;;;1.47;88.38;95834.56;5018608;28;21006;-58
2021/12/08 07:42:17;;;;;;;12.68;8.32;;;;;;;1.55;88.12;95828.09;5022671;28;20049;-58
2021/12/08 07:44:48;;;;;;;24.30;12.60;;;;;;;1.52;88.48;95817.88;5022236;28;20057;-58
2021/12/08 07:47:16;;;;;;;13.50;6.78;;;;;;;1.54;88.07;95826.44;5025990;28;20649;-55
2021/12/08 07:49:50;;;;;;;14.93;9.07;;;;;;;1.54;88.37;95824.63;5024359;28;20041;-58
2021/12/08 07:52:28;;;;;;;14.07;7.15;;;;;;;1.55;88.41;95820.88;5035390;28;20064;-57
2021/12/08 07:54:57;;;;;;;14.77;9.18;;;;;;;1.58;88.29;95830.28;5016316;28;20040;-57
2021/12/08 07:57:29;;;;;;;12.63;7.22;;;;;;;1.68;87.50;95822.53;5019458;28;20038;-56
2021/12/08 08:00:06;;;;;;;11.70;7.38;;;;;;;1.74;87.56;95834.13;5018475;28;20045;-55
2021/12/08 08:02:41;;;;;;;13.30;6.47;;;;;;;1.81;87.29;95842.00;5022240;28;20079;-58
2021/12/08 08:05:14;;;;;;;12.80;6.93;;;;;;;1.86;86.99;95852.78;5022089;28;20065;-57
2021/12/08 08:07:43;;;;;;;13.60;8.45;;;;;;;1.83;87.24;95855.13;5028730;28;20540;-58
2021/12/08 08:10:15;;;;;;;12.38;8.27;;;;;;;1.85;87.02;95835.16;5022237;28;20108;-57
2021/12/08 08:12:44;;;;;;;20.38;11.57;;;;;;;1.74;87.42;95833.31;5019453;28;20046;-58
2021/12/08 08:15:20;;;;;;;21.55;11.90;;;;;;;1.73;87.35;95845.03;5018623;28;20042;-58
2021/12/08 08:17:51;;;;;;;12.48;7.05;;;;;;;1.82;87.02;95846.28;5011859;28;20036;-58
2021/12/08 08:20:25;;;;;;;19.13;9.68;;;;;;;1.95;86.84;95851.38;5023750;28;20160;-57
2021/12/08 08:22:54;;;;;;;12.55;6.90;;;;;;;1.95;86.94;95863.91;5026952;28;20048;-58
2021/12/08 08:25:27;;;;;;;11.55;7.00;;;;;;;1.91;86.72;95860.91;5019183;28;20064;-58
2021/12/08 08:27:54;;;;;;;13.95;8.07;;;;;;;1.92;86.89;95865.19;5022706;28;20042;-57
2021/12/08 08:30:26;;;;;;;19.63;11.43;;;;;;;1.87;87.06;95859.75;5030673;28;20308;-58
2021/12/08 08:32:56;;;;;;;12.85;7.45;;;;;;;1.97;86.82;95858.34;5021646;28;20689;-58
2021/12/08 08:35:35;;;;;;;11.52;6.47;;;;;;;1.93;86.71;95874.84;5035077;28;20426;-58
2021/12/08 08:38:06;;;;;;;15.23;7.78;;;;;;;2.07;86.21;95871.91;5015042;28;20037;-55
2021/12/08 08:40:39;;;;;;;11.10;6.43;;;;;;;2.01;86.40;95867.50;5023891;28;20046;-57
2021/12/08 08:43:07;;;;;;;12.07;7.40;;;;;;;1.99;86.35;95872.28;5022175;28;20049;-57
2021/12/08 08:45:42;;;;;;;12.23;7.47;;;;;;;1.83;86.96;95866.59;5021450;28;20419;-56
2021/12/08 08:48:13;;;;;;;12.02;6.63;;;;;;;1.81;87.33;95863.34;5016509;28;20063;-55
2021/12/08 08:50:46;;;;;;;14.45;7.68;;;;;;;1.82;86.97;95854.28;5017018;28;20046;-54
2021/12/08 08:53:16;;;;;;;13.90;8.57;;;;;;;1.92;86.67;95851.84;5020206;28;20045;-56
2021/12/08 08:56:00;;;;;;;15.45;9.05;;;;;;;1.84;86.79;95841.50;5026685;28;20041;-56
2021/12/08 08:58:30;;;;;;;15.95;9.25;;;;;;;1.82;87.24;95838.28;5040336;28;20500;-56
2021/12/08 09:01:07;;;;;;;14.10;8.05;;;;;;;1.84;87.20;95860.19;5033280;28;20120;-57
2021/12/08 09:03:44;;;;;;;11.57;6.95;;;;;;;1.91;86.55;95866.25;5027107;28;20629;-57
2021/12/08 09:06:15;;;;;;;10.75;6.68;;;;;;;1.97;86.59;95867.16;5045919;28;20609;-54
2021/12/08 09:08:43;;;;;;;10.98;7.28;;;;;;;1.93;86.75;95869.50;5024857;28;20504;-57
2021/12/08 09:11:21;;;;;;;12.07;7.78;;;;;;;1.97;86.82;95875.16;5023336;28;20049;-54
2021/12/08 09:13:50;;;;;;;9.95;5.95;;;;;;;2.07;86.21;95867.38;5027739;28;20616;-54
2021/12/08 09:16:25;;;;;;;11.10;6.25;;;;;;;2.17;85.71;95876.63;5029008;28;20046;-57
2021/12/08 09:19:03;;;;;;;10.77;5.82;;;;;;;2.23;85.45;95880.22;5018388;28;20083;-56
2021/12/08 09:21:39;;;;;;;10.05;5.60;;;;;;;2.26;85.11;95887.78;5044349;28;20052;-55
2021/12/08 09:24:22;;;;;;;10.90;5.93;;;;;;;2.33;85.08;95889.25;5016719;28;20068;-55
2021/12/08 09:26:52;;;;;;;10.48;6.50;;;;;;;2.26;85.56;95898.47;5031286;28;20049;-56
2021/12/08 09:29:24;;;;;;;11.45;5.82;;;;;;;2.26;85.67;95891.28;5042341;28;20067;-54
2021/12/08 09:31:57;;;;;;;9.43;5.28;;;;;;;2.32;85.38;95887.66;5015876;28;20041;-56
2021/12/08 09:34:31;;;;;;;10.63;5.75;;;;;;;2.44;84.63;95879.59;5022727;28;20050;-57
2021/12/08 09:37:06;;;;;;;9.98;5.75;;;;;;;2.38;85.33;95883.22;5034983;28;20049;-57
2021/12/08 09:39:40;;;;;;;9.93;6.07;;;;;;;2.43;84.72;95886.00;5023646;28;20046;-57
2021/12/08 09:42:29;;;;;;;8.77;5.28;;;;;;;2.42;85.36;95887.06;5022259;28;20045;-57
2021/12/08 09:45:03;;;;;;;7.70;4.80;;;;;;;2.51;84.60;95884.81;5029882;28;20045;-56
2021/12/08 09:47:30;;;;;;;8.10;4.50;;;;;;;2.51;84.90;95890.16;5017271;28;20037;-57
2021/12/08 09:50:02;;;;;;;9.00;4.90;;;;;;;2.53;84.63;95882.72;5026435;28;20286;-58
2021/12/08 09:52:28;;;;;;;7.00;4.78;;;;;;;2.63;84.06;95879.44;5026714;28;20364;-56
2021/12/08 09:54:57;;;;;;;11.90;5.43;;;;;;;2.56;84.43;95876.09;5045959;28;20040;-57
2021/12/08 09:57:25;;;;;;;9.82;6.20;;;;;;;2.45;85.06;95872.41;5024375;28;20060;-57
2021/12/08 09:59:52;;;;;;;9.13;4.97;;;;;;;2.45;85.57;95867.88;5027515;28;20401;-57
2021/12/08 10:02:33;;;;;;;9.27;5.18;;;;;;;2.39;85.84;95870.69;5029445;28;20046;-57
2021/12/08 10:05:13;;;;;;;9.75;5.30;;;;;;;2.47;85.55;95863.09;5020042;28;20053;-57
2021/12/08 10:07:42;;;;;;;9.13;5.15;;;;;;;2.46;85.81;95858.81;5027050;28;20052;-57
2021/12/08 10:10:14;;;;;;;8.77;5.07;;;;;;;2.54;85.67;95856.81;5031412;28;20068;-56
2021/12/08 10:12:41;;;;;;;11.05;5.53;;;;;;;2.50;85.18;95859.13;5010204;28;20057;-56
2021/12/08 10:15:12;;;;;;;7.72;5.28;;;;;;;2.61;84.74;95854.81;5017131;28;20050;-57
2021/12/08 10:17:39;;;;;;;8.65;4.53;;;;;;;2.58;85.17;95857.97;5035840;28;20037;-58
2021/12/08 10:20:17;;;;;;;9.07;4.47;;;;;;;2.62;85.09;95855.63;5038691;28;20042;-57
2021/12/08 10:22:48;;;;;;;8.35;5.05;;;;;;;2.63;84.57;95858.06;5014251;28;20050;-57
2021/12/08 10:25:23;;;;;;;8.20;4.68;;;;;;;2.56;85.05;95858.19;5027231;28;20056;-57
2021/12/08 10:28:17;;;;;;;8.57;4.32;;;;;;;2.56;85.18;95852.88;5038918;28;20056;-57
2021/12/08 10:30:54;;;;;;;8.20;5.10;;;;;;;2.55;85.08;95848.53;5013009;28;20054;-54
2021/12/08 10:33:52;;;;;;;6.20;3.78;;;;;;;2.59;85.32;95857.72;5028425;28;20090;-57
2021/12/08 10:39:23;;;;;;;8.43;5.20;;;;;;;2.61;84.66;95841.44;5015287;28;20060;-56
2021/12/08 10:42:18;;;;;;;8.45;4.72;;;;;;;2.59;84.91;95839.00;5026717;28;20432;-56
2021/12/08 10:45:22;;;;;;;9.10;5.90;;;;;;;2.62;84.90;95836.91;5035722;28;20116;-57
2021/12/08 10:47:53;;;;;;;9.35;5.13;;;;;;;2.70;84.48;95829.31;5023624;28;20412;-57
2021/12/08 10:56:06;;;;;;;8.55;5.28;;;;;;;2.75;84.61;95825.09;5033772;28;20048;-58
2021/12/08 10:58:36;;;;;;;8.15;4.68;;;;;;;2.83;84.05;95820.19;5031706;28;20687;-58
2021/12/08 11:01:13;;;;;;;8.40;5.15;;;;;;;2.88;84.01;95822.16;5036190;28;20040;-57
2021/12/08 11:03:40;;;;;;;7.55;4.32;;;;;;;2.78;84.60;95817.44;5028224;28;20120;-58
2021/12/08 11:06:09;;;;;;;10.15;6.20;;;;;;;2.85;84.63;95818.06;5031243;28;20456;-58
2021/12/08 11:08:40;;;;;;;11.98;7.35;;;;;;;2.72;85.20;95813.84;5030606;28;20040;-58
2021/12/08 11:11:11;;;;;;;13.13;5.63;;;;;;;2.78;85.23;95789.88;5018988;28;20056;-55
2021/12/08 11:13:43;;;;;;;11.88;5.68;;;;;;;2.84;85.11;95792.41;5026260;28;20068;-56
2021/12/08 11:16:13;;;;;;;15.18;10.05;;;;;;;2.82;85.19;95802.53;5025542;28;20041;-58
2021/12/08 11:18:43;;;;;;;7.82;4.93;;;;;;;2.88;85.44;95792.75;5022363;28;20076;-57
2021/12/08 11:21:18;;;;;;;9.40;4.95;;;;;;;2.99;84.81;95797.19;5017164;28;20045;-59
2021/12/08 11:24:21;;;;;;;11.00;7.25;;;;;;;3.01;84.91;95798.81;5022944;28;20038;-58
2021/12/08 11:26:51;;;;;;;9.48;5.75;;;;;;;3.04;84.85;95801.00;5031021;28;20059;-58
2021/12/08 11:29:22;;;;;;;20.35;11.20;;;;;;;2.98;85.15;95790.22;5040871;28;20080;-58
2021/12/08 11:31:55;;;;;;;9.52;5.50;;;;;;;3.05;84.89;95784.72;5015737;28;20045;-57
2021/12/08 11:34:23;;;;;;;8.88;5.03;;;;;;;3.02;84.80;95787.88;5027674;28;20111;-57
2021/12/08 11:36:54;;;;;;;10.95;7.40;;;;;;;3.03;85.23;95788.69;5030293;28;20082;-57
2021/12/08 11:39:24;;;;;;;7.70;4.82;;;;;;;3.14;84.59;95787.81;5036391;28;20045;-57
2021/12/08 11:41:54;;;;;;;8.10;4.43;;;;;;;3.22;84.33;95792.75;5014352;28;20033;-57
2021/12/08 11:44:24;;;;;;;8.93;5.40;;;;;;;3.18;84.55;95799.66;5019322;28;20108;-57
2021/12/08 11:47:05;;;;;;;9.65;4.75;;;;;;;3.23;84.22;95797.03;5006561;28;20398;-57
2021/12/08 11:49:34;;;;;;;8.02;5.40;;;;;;;3.15;84.29;95791.28;5006176;28;20068;-57
2021/12/08 11:52:13;;;;;;;8.48;5.10;;;;;;;3.38;83.33;95796.47;5006575;28;20042;-58
2021/12/08 11:55:21;;;;;;;8.40;4.38;;;;;;;3.47;82.69;95802.19;5010309;28;20041;-58
2021/12/08 11:57:58;;;;;;;7.57;3.92;;;;;;;3.49;83.09;95797.44;5026514;28;20079;-58
2021/12/08 12:00:31;;;;;;;8.25;4.85;;;;;;;3.28;83.83;95798.97;5028201;28;20046;-58
2021/12/08 12:03:05;;;;;;;11.18;5.45;;;;;;;3.14;84.20;95793.16;5037061;28;20072;-57
2021/12/08 12:05:47;;;;;;;8.20;5.18;;;;;;;3.12;84.28;95805.94;5016263;28;20056;-58
2021/12/08 12:08:19;;;;;;;9.18;5.28;;;;;;;3.16;84.31;95798.28;5024207;28;20103;-57
2021/12/08 12:10:48;;;;;;;;;;;;;;;3.19;84.12;95801.25;5042461;28;20578;-58
2021/12/08 12:13:15;;;;;;;12.00;5.00;;;;;;;3.17;84.34;95792.66;5023831;28;20439;-57
2021/12/08 12:15:46;;;;;;;8.50;5.03;;;;;;;3.27;83.99;95800.03;5029392;28;20048;-58
2021/12/08 12:18:17;;;;;;;8.68;4.82;;;;;;;3.21;84.13;95788.44;5033736;28;20052;-58
2021/12/08 12:20:48;;;;;;;7.38;4.63;;;;;;;3.24;84.33;95790.63;5019705;28;20041;-56
2021/12/08 12:23:44;;;;;;;8.77;5.10;;;;;;;3.17;84.32;95789.19;5021199;28;20046;-58
2021/12/08 12:26:30;;;;;;;9.45;5.40;;;;;;;3.15;84.26;95783.25;5032333;28;20048;-58
2021/12/08 12:29:27;;;;;;;7.90;4.55;;;;;;;3.29;83.66;95786.41;5008919;28;20042;-57
2021/12/08 12:32:03;;;;;;;7.95;4.32;;;;;;;3.15;84.17;95788.59;5011319;28;20124;-58
2021/12/08 12:34:36;;;;;;;7.55;4.63;;;;;;;3.11;84.66;95782.94;5031320;28;20081;-57
2021/12/08 12:37:24;;;;;;;9.18;4.63;;;;;;;3.21;84.36;95783.09;5027438;28;20060;-57
2021/12/08 12:39:54;;;;;;;13.95;6.80;;;;;;;3.11;84.98;95783.75;5017870;28;20055;-58
2021/12/08 12:42:22;;;;;;;12.35;6.45;;;;;;;3.07;84.97;95782.63;5027650;28;20106;-58
2021/12/08 12:44:57;;;;;;;11.05;5.60;;;;;;;3.16;84.63;95776.88;5031270;28;20050;-57
2021/12/08 12:47:28;;;;;;;16.48;7.00;;;;;;;3.10;84.72;95774.09;5010758;28;20060;-58
2021/12/08 12:50:03;;;;;;;9.75;6.28;;;;;;;3.15;84.58;95768.03;5018016;28;20045;-56
2021/12/08 12:52:33;;;;;;;11.57;5.70;;;;;;;3.16;85.05;95775.00;5029147;28;20061;-56